Time;durP1;ratioP1;P1;durP2;ratioP2;P2;SDS_P1;SDS_P2;PMS_P1;PMS_P2;Temp;Humidity;BMP_temperature;BMP_pressure;BME280_temperature;BME280_humidity;BME280_pressure;Samples;Min_cycle;Max_cycle;Signal;HPM_P1;HPM_P2
2023/03/12 00:00:50;;;;;;;;;9.25;9.00;;;;;11.34;100.00;99012.66;5095713;27;46104;-77
2023/03/12 00:03:16;;;;;;;;;11.00;10.50;;;;;11.37;100.00;99001.97;5112250;27;45399;-77
2023/03/12 00:05:42;;;;;;;;;12.75;11.00;;;;;11.36;100.00;99005.53;5095161;27;45379;-77
2023/03/12 00:08:09;;;;;;;;;12.00;10.25;;;;;11.38;100.00;99014.22;5095942;27;45662;-77
2023/03/12 00:10:37;;;;;;;;;11.50;10.25;;;;;11.41;100.00;99016.72;5096205;27;45436;-77
2023/03/12 00:13:03;;;;;;;;;11.00;10.25;;;;;11.42;100.00;99018.44;5096028;27;45441;-77
2023/03/12 00:15:28;;;;;;;;;11.75;9.00;;;;;11.42;100.00;99024.56;5096155;27;45295;-77
2023/03/12 00:17:54;;;;;;;;;10.75;10.50;;;;;11.46;100.00;99017.38;5095839;27;45411;-77
2023/03/12 00:20:20;;;;;;;;;13.25;11.75;;;;;11.46;99.84;99020.00;5096076;27;46445;-77
2023/03/12 00:22:46;;;;;;;;;10.75;8.25;;;;;11.49;99.92;99020.72;5094525;27;45472;-77
2023/03/12 00:25:14;;;;;;;;;6.75;6.00;;;;;11.49;99.18;99018.09;5095984;27;45389;-77
2023/03/12 00:27:41;;;;;;;;;6.00;6.00;;;;;11.51;99.14;99026.81;5095624;27;45603;-77
2023/03/12 00:30:09;;;;;;;;;4.25;4.25;;;;;11.49;98.86;99026.00;5095656;27;46772;-77
2023/03/12 00:32:35;;;;;;;;;5.25;4.00;;;;;11.50;98.66;99013.66;5095463;27;45454;-77
2023/03/12 00:35:00;;;;;;;;;6.00;5.00;;;;;11.47;98.24;99009.38;5095239;27;45538;-77
2023/03/12 00:37:26;;;;;;;;;5.25;4.00;;;;;11.48;98.40;99018.16;5094267;27;45518;-77
2023/03/12 00:39:52;;;;;;;;;8.25;6.00;;;;;11.45;97.84;99024.44;5094622;27;46553;-77
2023/03/12 00:42:18;;;;;;;;;5.75;5.50;;;;;11.38;98.10;99030.94;5095751;27;45470;-76
2023/03/12 00:44:44;;;;;;;;;8.50;7.00;;;;;11.37;98.70;99037.13;5095841;27;45454;-77
2023/03/12 00:47:10;;;;;;;;;8.25;7.50;;;;;11.38;98.75;99038.84;5095689;27;45434;-77
2023/03/12 00:49:36;;;;;;;;;6.00;6.00;;;;;11.35;98.36;99036.34;5095663;27;45393;-76
2023/03/12 00:52:02;;;;;;;;;4.75;4.75;;;;;11.31;98.50;99037.41;5094527;27;45367;-77
2023/03/12 00:54:27;;;;;;;;;8.00;8.00;;;;;11.31;98.72;99041.81;5095779;27;45338;-77
2023/03/12 00:56:52;;;;;;;;;7.75;7.00;;;;;11.31;98.62;99044.44;5111044;27;45266;-77
2023/03/12 00:59:18;;;;;;;;;7.50;7.50;;;;;11.32;99.05;99044.38;5095211;27;46244;-77
2023/03/12 01:01:43;;;;;;;;;9.50;8.50;;;;;11.32;99.18;99043.53;5094717;27;45426;-77
2023/03/12 01:04:09;;;;;;;;;9.25;6.75;;;;;11.31;99.13;99047.94;5095718;27;45585;-78
2023/03/12 01:06:35;;;;;;;;;9.50;9.50;;;;;11.31;99.18;99042.66;5095430;27;45532;-77
2023/03/12 01:09:04;;;;;;;;;13.00;13.00;;;;;11.32;99.54;99052.31;5094817;27;46292;-77
2023/03/12 01:11:31;;;;;;;;;15.25;13.75;;;;;11.33;99.98;99061.06;5094841;27;45420;-77
2023/03/12 01:13:58;;;;;;;;;16.50;14.50;;;;;11.33;99.82;99061.94;5095465;27;45319;-76
2023/03/12 01:16:27;;;;;;;;;16.00;12.50;;;;;11.32;99.99;99062.88;5094755;27;45494;-77
2023/03/12 01:18:56;;;;;;;;;17.25;13.25;;;;;11.32;100.00;99054.94;5095116;27;46493;-77
2023/03/12 01:21:23;;;;;;;;;13.75;11.50;;;;;11.33;100.00;99061.94;5093801;27;45448;-77
2023/03/12 01:23:49;;;;;;;;;16.00;13.00;;;;;11.33;100.00;99064.56;5095075;27;45407;-77
2023/03/12 01:26:14;;;;;;;;;14.00;13.50;;;;;11.31;99.86;99063.78;5094809;27;45434;-77
2023/03/12 01:28:40;;;;;;;;;14.00;14.00;;;;;11.30;99.69;99071.75;5095018;27;45594;-77
2023/03/12 01:31:11;;;;;;;;;14.00;14.00;;;;;11.29;99.52;99070.91;5094185;27;45434;-77
2023/03/12 01:33:37;;;;;;;;;20.25;15.75;;;;;11.28;99.07;99063.91;5093424;27;45389;-77
2023/03/12 01:36:03;;;;;;;;;16.75;13.50;;;;;11.25;99.38;99064.03;5094558;27;45307;-77
2023/03/12 01:38:28;;;;;;;;;17.00;15.75;;;;;11.23;99.55;99057.16;5094624;27;46541;-77
2023/03/12 01:40:54;;;;;;;;;15.50;13.50;;;;;11.23;99.62;99057.16;5093235;27;45396;-77
2023/03/12 01:43:31;;;;;;;;;16.25;12.50;;;;;11.21;99.71;99057.22;5094716;27;45959;-77
2023/03/12 01:46:15;;;;;;;;;17.50;17.50;;;;;11.18;99.33;99055.56;5094384;27;45383;-77
2023/03/12 01:48:55;;;;;;;;;17.50;15.25;;;;;11.13;99.57;99056.66;5096903;27;47630;-77
2023/03/12 01:51:24;;;;;;;;;14.00;14.00;;;;;11.12;99.85;99057.59;5097782;27;45312;-77
2023/03/12 01:53:53;;;;;;;;;9.25;7.75;;;;;11.11;99.46;99051.47;5097549;27;45450;-77
2023/03/12 01:56:20;;;;;;;;;11.50;10.50;;;;;11.10;99.67;99057.66;5096796;27;45540;-77
2023/03/12 01:58:51;;;;;;;;;11.50;9.00;;;;;11.08;99.33;99048.94;5098093;27;46079;-77
2023/03/12 02:01:18;;;;;;;;;13.50;10.00;;;;;11.08;99.35;99048.09;5098159;27;45810;-77
2023/03/12 02:03:49;;;;;;;;;9.00;8.00;;;;;11.10;99.37;99056.78;5097341;27;45434;-77
2023/03/12 02:06:15;;;;;;;;;7.75;7.75;;;;;11.11;99.70;99046.19;5096965;27;45503;-77
2023/03/12 02:08:44;;;;;;;;;5.00;5.00;;;;;11.12;99.47;99047.03;5097562;27;45409;-77
2023/03/12 02:11:10;;;;;;;;;5.00;5.00;;;;;11.13;99.20;99046.97;5097556;27;45407;-76
2023/03/12 02:13:36;;;;;;;;;6.00;4.00;;;;;11.15;98.88;99054.81;5098358;27;45465;-77
2023/03/12 02:16:01;;;;;;;;;4.00;3.50;;;;;11.16;99.08;99059.19;5097734;27;45585;-77
2023/03/12 02:18:27;;;;;;;;;6.25;6.25;;;;;11.18;98.97;99052.91;5098144;27;45651;-77
2023/03/12 02:21:26;;;;;;;;;3.00;3.00;;;;;11.22;98.89;99066.84;5098009;27;45397;-77
2023/03/12 02:23:54;;;;;;;;;2.50;1.25;;;;;11.23;97.64;99078.25;5096691;27;45506;-77
2023/03/12 02:26:21;;;;;;;;;7.00;7.00;;;;;11.16;97.93;99086.41;5097656;27;45510;-76
2023/03/12 02:28:48;;;;;;;;;5.25;3.50;;;;;11.12;98.99;99092.75;5097771;27;45584;-77
2023/03/12 02:31:18;;;;;;;;;7.25;6.50;;;;;11.01;99.67;99096.78;5097110;27;45466;-77
2023/03/12 02:33:44;;;;;;;;;7.75;4.50;;;;;10.93;100.00;99096.22;5096853;27;45326;-76
2023/03/12 02:36:09;;;;;;;;;17.25;12.25;;;;;10.84;100.00;99089.56;5097649;27;45503;-77
2023/03/12 02:38:48;;;;;;;;;13.25;11.75;;;;;10.78;100.00;99079.25;5098054;27;46438;-77
2023/03/12 02:41:18;;;;;;;;;18.00;12.50;;;;;10.71;100.00;99085.72;5085166;27;45448;-77
2023/03/12 02:43:48;;;;;;;;;10.00;10.00;;;;;10.63;100.00;99080.75;5096370;27;45405;-77
2023/03/12 02:46:14;;;;;;;;;9.25;9.25;;;;;10.58;100.00;99079.22;5097661;27;45524;-76
2023/03/12 02:48:42;;;;;;;;;14.25;11.00;;;;;10.55;100.00;99087.28;5096902;27;45498;-76
2023/03/12 02:51:08;;;;;;;;;16.50;13.75;;;;;10.48;100.00;99081.38;5097241;27;45441;-76
2023/03/12 02:53:33;;;;;;;;;15.25;12.25;;;;;10.45;100.00;99087.63;5095631;27;45542;-76
2023/03/12 02:55:59;;;;;;;;;13.00;12.75;;;;;10.46;100.00;99088.50;5097776;27;45453;-77
2023/03/12 02:58:24;;;;;;;;;12.50;12.50;;;;;10.44;100.00;99087.69;5096851;27;45748;-76
2023/03/12 03:00:50;;;;;;;;;9.00;8.00;;;;;10.44;100.00;99090.31;5096985;27;45330;-77
2023/03/12 03:03:15;;;;;;;;;15.75;14.75;;;;;10.43;100.00;99089.47;5097499;27;45823;-77
2023/03/12 03:05:40;;;;;;;;;17.00;16.00;;;;;10.42;100.00;99081.63;5097426;27;45393;-77
2023/03/12 03:08:06;;;;;;;;;14.25;9.50;;;;;10.41;100.00;99086.03;5096932;27;46332;-77
2023/03/12 03:10:32;;;;;;;;;12.50;11.00;;;;;10.42;100.00;99093.03;5097557;27;45348;-76
2023/03/12 03:12:57;;;;;;;;;11.75;9.25;;;;;10.41;100.00;99093.94;5097231;27;45609;-77
2023/03/12 03:15:23;;;;;;;;;15.00;11.25;;;;;10.40;100.00;99094.84;5096609;27;45499;-77
2023/03/12 03:17:48;;;;;;;;;9.50;8.75;;;;;10.42;100.00;99100.06;5096709;27;46526;-77
2023/03/12 03:20:14;;;;;;;;;9.75;8.75;;;;;10.44;100.00;99098.22;5096961;27;45350;-76
2023/03/12 03:22:39;;;;;;;;;11.75;10.50;;;;;10.46;100.00;99094.63;5096967;27;45544;-77
2023/03/12 03:25:08;;;;;;;;;9.25;9.25;;;;;10.49;100.00;99091.00;5097287;27;45470;-77
2023/03/12 03:27:33;;;;;;;;;10.25;8.50;;;;;10.55;100.00;99096.03;5097015;27;45682;-77
2023/03/12 03:29:59;;;;;;;;;14.25;12.75;;;;;10.59;100.00;99104.66;5096725;27;45549;-77
2023/03/12 03:32:24;;;;;;;;;13.00;10.75;;;;;10.60;100.00;99107.25;5097153;27;45454;-77
2023/03/12 03:34:50;;;;;;;;;12.75;10.00;;;;;10.64;100.00;99106.19;5097158;27;45460;-76
2023/03/12 03:37:15;;;;;;;;;7.75;7.75;;;;;10.65;100.00;99102.66;5096016;27;45488;-77
2023/03/12 03:39:40;;;;;;;;;6.50;6.50;;;;;10.67;100.00;99108.72;5095274;27;45390;-76
2023/03/12 03:42:07;;;;;;;;;9.00;7.00;;;;;10.70;100.00;99107.75;5096742;27;45295;-77
2023/03/12 03:44:32;;;;;;;;;13.75;11.50;;;;;10.73;100.00;99108.44;5096621;27;45489;-77
2023/03/12 03:46:58;;;;;;;;;11.75;9.00;;;;;10.78;100.00;99111.75;5096554;27;46200;-77
2023/03/12 03:49:24;;;;;;;;;10.75;10.00;;;;;10.81;100.00;99111.66;5096989;27;45411;-77
2023/03/12 03:51:50;;;;;;;;;8.75;8.50;;;;;10.83;100.00;99108.94;5112725;27;45464;-77
2023/03/12 03:54:17;;;;;;;;;5.75;5.75;;;;;10.83;100.00;99108.94;5097083;27;45431;-77
2023/03/12 03:56:43;;;;;;;;;8.50;6.50;;;;;10.88;100.00;99121.94;5096438;27;45432;-77
2023/03/12 03:59:08;;;;;;;;;7.25;7.00;;;;;10.88;100.00;99120.19;5096863;27;45470;-77
2023/03/12 04:01:33;;;;;;;;;14.50;13.50;;;;;10.89;100.00;99126.31;5096069;27;45411;-77
2023/03/12 04:03:59;;;;;;;;;9.00;9.00;;;;;10.88;100.00;99135.13;5095263;27;45600;-77
2023/03/12 04:06:25;;;;;;;;;10.25;10.00;;;;;10.83;100.00;99125.63;5096388;27;46305;-77
2023/03/12 04:08:50;;;;;;;;;14.50;13.25;;;;;10.84;100.00;99129.13;5096036;27;45392;-77
2023/03/12 04:11:20;;;;;;;;;11.25;11.25;;;;;10.82;100.00;99125.69;5095814;27;45393;-77
2023/03/12 04:13:45;;;;;;;;;13.00;12.00;;;;;10.78;100.00;99126.72;5096129;27;45427;-77
2023/03/12 04:16:11;;;;;;;;;16.50;14.25;;;;;10.76;100.00;99129.41;5095760;27;45437;-77
2023/03/12 04:18:37;;;;;;;;;14.75;12.00;;;;;10.73;100.00;99132.19;5096328;27;45391;-77
2023/03/12 04:21:05;;;;;;;;;11.75;9.50;;;;;10.70;100.00;99134.97;5096373;27;45469;-77
2023/03/12 04:23:30;;;;;;;;;15.50;10.50;;;;;10.66;100.00;99136.00;5111948;27;46002;-77
2023/03/12 04:25:56;;;;;;;;;8.25;8.25;;;;;10.65;100.00;99144.84;5095544;27;45365;-77
2023/03/12 04:28:21;;;;;;;;;9.00;8.00;;;;;10.63;100.00;99145.81;5095967;27;45409;-77
2023/03/12 04:30:59;;;;;;;;;9.00;8.50;;;;;10.60;100.00;99154.69;5096180;27;45502;-77
2023/03/12 04:33:30;;;;;;;;;14.75;12.25;;;;;10.60;100.00;99159.09;5095879;27;45487;-77
2023/03/12 04:35:56;;;;;;;;;8.50;8.50;;;;;10.57;100.00;99164.50;5095447;27;45571;-77
2023/03/12 04:38:23;;;;;;;;;8.75;8.75;;;;;10.54;100.00;99164.63;5094221;27;45433;-77
2023/03/12 04:41:13;;;;;;;;;8.25;5.00;;;;;10.51;100.00;99162.13;5095848;27;45443;-77
2023/03/12 04:43:38;;;;;;;;;10.00;8.75;;;;;10.48;100.00;99166.59;5095679;27;45374;-77
2023/03/12 04:46:05;;;;;;;;;7.50;7.00;;;;;10.48;100.00;99165.72;5095600;27;45453;-76
2023/03/12 04:48:30;;;;;;;;;10.25;10.00;;;;;10.50;100.00;99169.16;5095537;27;45333;-77
2023/03/12 04:50:56;;;;;;;;;9.25;8.50;;;;;10.47;100.00;99174.53;5094424;27;45427;-77
2023/03/12 04:53:22;;;;;;;;;9.00;9.00;;;;;10.44;100.00;99183.44;5093601;27;45346;-77
2023/03/12 04:55:48;;;;;;;;;12.25;10.75;;;;;10.42;100.00;99185.25;5095298;27;45387;-77
2023/03/12 04:58:13;;;;;;;;;13.00;9.00;;;;;10.42;100.00;99192.31;5111138;27;45441;-77
2023/03/12 05:00:40;;;;;;;;;10.50;8.75;;;;;10.42;100.00;99195.81;5094557;27;45371;-77
2023/03/12 05:03:05;;;;;;;;;9.00;8.25;;;;;10.42;100.00;99198.44;5095234;27;45544;-77
2023/03/12 05:05:31;;;;;;;;;9.00;7.50;;;;;10.42;100.00;99202.84;5094027;27;47425;-76
2023/03/12 05:07:56;;;;;;;;;10.75;10.50;;;;;10.45;100.00;99211.50;5095358;27;45443;-77
2023/03/12 05:10:21;;;;;;;;;13.25;11.00;;;;;10.48;100.00;99215.81;5095919;27;45522;-77
2023/03/12 05:12:47;;;;;;;;;11.50;10.50;;;;;10.48;100.00;99202.63;5094022;27;45451;-77
2023/03/12 05:15:12;;;;;;;;;9.50;8.00;;;;;10.51;100.00;99201.66;5093954;27;47177;-78
2023/03/12 05:17:38;;;;;;;;;14.00;10.25;;;;;10.56;100.00;99211.06;5095604;27;45356;-77
2023/03/12 05:20:05;;;;;;;;;9.25;9.25;;;;;10.60;100.00;99212.69;5095495;27;45403;-77
2023/03/12 05:22:30;;;;;;;;;13.00;10.50;;;;;10.61;100.00;99213.53;5094938;27;45574;-77
2023/03/12 05:24:56;;;;;;;;;10.00;9.00;;;;;10.63;100.00;99212.56;5093898;27;46036;-77
2023/03/12 05:27:24;;;;;;;;;12.75;11.25;;;;;10.67;100.00;99222.09;5095160;27;45291;-77
2023/03/12 05:29:50;;;;;;;;;15.25;11.25;;;;;10.68;100.00;99226.44;5095280;27;45435;-77
2023/03/12 05:32:15;;;;;;;;;9.50;9.50;;;;;10.70;100.00;99234.31;5094600;27;45476;-77
2023/03/12 05:34:41;;;;;;;;;11.25;8.25;;;;;10.68;100.00;99228.22;5095324;27;45425;-76
2023/03/12 05:37:06;;;;;;;;;9.25;7.75;;;;;10.71;100.00;99236.88;5095029;27;45427;-77
2023/03/12 05:39:32;;;;;;;;;11.25;8.00;;;;;10.69;100.00;99235.22;5095396;27;45378;-77
2023/03/12 05:41:57;;;;;;;;;9.50;8.50;;;;;10.69;100.00;99233.44;5094995;27;45568;-77
2023/03/12 05:44:23;;;;;;;;;10.25;9.00;;;;;10.73;100.00;99244.69;5095114;27;46316;-77
2023/03/12 05:46:50;;;;;;;;;10.00;8.00;;;;;10.71;100.00;99242.16;5095149;27;45467;-77
2023/03/12 05:49:15;;;;;;;;;7.00;7.00;;;;;10.72;100.00;99240.38;5095335;27;45383;-77
2023/03/12 05:51:42;;;;;;;;;12.00;9.00;;;;;10.77;100.00;99248.94;5094849;27;45291;-77
2023/03/12 05:54:08;;;;;;;;;14.00;8.00;;;;;10.75;100.00;99233.19;5094968;27;45353;-77
2023/03/12 05:56:35;;;;;;;;;12.50;9.25;;;;;10.80;100.00;99254.09;5094624;27;45459;-76
2023/03/12 05:59:01;;;;;;;;;8.00;8.00;;;;;10.76;100.00;99242.81;5095107;27;45419;-77
2023/03/12 06:01:27;;;;;;;;;7.75;7.25;;;;;10.81;100.00;99256.69;5094238;27;45472;-77
2023/03/12 06:03:53;;;;;;;;;12.50;8.00;;;;;10.82;100.00;99254.91;5094609;27;45451;-76
2023/03/12 06:06:20;;;;;;;;;6.00;5.25;;;;;10.83;100.00;99256.63;5094410;27;45692;-77
2023/03/12 06:08:45;;;;;;;;;7.75;7.00;;;;;10.84;100.00;99268.91;5094323;27;45573;-77
2023/03/12 06:11:11;;;;;;;;;9.50;8.75;;;;;10.83;100.00;99272.47;5093997;27;45460;-77
2023/03/12 06:13:36;;;;;;;;;6.75;6.75;;;;;10.80;100.00;99273.44;5094139;27;45443;-77
2023/03/12 06:16:14;;;;;;;;;7.75;6.50;;;;;10.78;100.00;99274.41;5094313;27;45383;-77
2023/03/12 06:18:40;;;;;;;;;8.25;7.25;;;;;10.80;100.00;99272.56;5094709;27;45440;-76
2023/03/12 06:21:08;;;;;;;;;8.50;6.50;;;;;10.84;100.00;99267.13;5094435;27;45491;-77
2023/03/12 06:23:34;;;;;;;;;6.25;6.25;;;;;10.87;100.00;99283.75;5094385;27;45682;-77
2023/03/12 06:25:59;;;;;;;;;10.25;6.25;;;;;10.88;100.00;99288.09;5094169;27;45667;-77
2023/03/12 06:28:25;;;;;;;;;10.00;7.25;;;;;10.90;100.00;99292.38;5094160;27;46025;-77
2023/03/12 06:30:52;;;;;;;;;9.75;9.50;;;;;10.93;100.00;99283.50;5093878;27;45505;-77
2023/03/12 06:33:18;;;;;;;;;10.00;8.75;;;;;10.94;100.00;99283.44;5094972;27;46192;-77
2023/03/12 06:35:44;;;;;;;;;8.50;8.00;;;;;10.97;100.00;99287.75;5097767;27;45361;-77
2023/03/12 06:38:09;;;;;;;;;11.50;9.25;;;;;11.03;100.00;99292.78;5097376;27;45536;-76
2023/03/12 06:40:35;;;;;;;;;12.00;9.00;;;;;11.05;100.00;99290.94;5095880;27;45864;-76
2023/03/12 06:43:00;;;;;;;;;8.00;8.00;;;;;11.10;100.00;99296.88;5097292;27;45509;-76
2023/03/12 06:45:26;;;;;;;;;9.50;8.50;;;;;11.12;100.00;99302.97;5096876;27;45434;-77
2023/03/12 06:47:51;;;;;;;;;11.50;8.25;;;;;11.15;100.00;99303.72;5097520;27;45491;-77
2023/03/12 06:50:16;;;;;;;;;10.50;10.00;;;;;11.18;100.00;99306.22;5097353;27;45438;-77
2023/03/12 06:52:42;;;;;;;;;11.25;11.00;;;;;11.23;100.00;99313.94;5097391;27;45553;-76
2023/03/12 06:55:07;;;;;;;;;7.00;7.00;;;;;11.26;100.00;99310.34;5097364;27;45443;-77
2023/03/12 06:57:33;;;;;;;;;13.25;9.25;;;;;11.31;100.00;99313.66;5097490;27;45513;-77
2023/03/12 06:59:58;;;;;;;;;9.50;9.50;;;;;11.32;100.00;99310.09;5095440;27;45481;-77
2023/03/12 07:02:23;;;;;;;;;12.75;12.75;;;;;11.36;100.00;99320.47;5097197;27;46428;-77
2023/03/12 07:04:49;;;;;;;;;12.25;10.25;;;;;11.38;100.00;99321.28;5095820;27;45604;-76
2023/03/12 07:07:15;;;;;;;;;12.25;11.00;;;;;11.41;100.00;99331.69;5097511;27;45442;-76
2023/03/12 07:09:41;;;;;;;;;12.25;10.75;;;;;11.43;100.00;99340.41;5095614;27;45478;-76
2023/03/12 07:12:07;;;;;;;;;17.00;13.00;;;;;11.45;100.00;99338.56;5097115;27;46359;-77
2023/03/12 07:14:32;;;;;;;;;7.75;6.50;;;;;11.49;100.00;99342.81;5096880;27;45308;-77
2023/03/12 07:17:00;;;;;;;;;12.75;12.75;;;;;11.48;100.00;99341.09;5095502;27;45418;-76
2023/03/12 07:19:28;;;;;;;;;12.50;12.50;;;;;11.50;100.00;99335.75;5096850;27;45485;-77
2023/03/12 07:21:54;;;;;;;;;15.50;11.75;;;;;11.56;100.00;99340.81;5096903;27;46689;-77
2023/03/12 07:24:19;;;;;;;;;12.75;11.00;;;;;11.60;100.00;99342.38;5096763;27;45418;-76
2023/03/12 07:26:45;;;;;;;;;9.75;8.25;;;;;11.67;100.00;99343.84;5097039;27;45403;-76
2023/03/12 07:29:10;;;;;;;;;12.50;12.50;;;;;11.74;100.00;99342.66;5096305;27;45520;-76
2023/03/12 07:31:36;;;;;;;;;15.50;13.50;;;;;11.81;100.00;99346.81;5096097;27;46394;-77
2023/03/12 07:34:01;;;;;;;;;12.00;11.00;;;;;11.83;100.00;99342.34;5095198;27;45596;-77
2023/03/12 07:36:28;;;;;;;;;14.25;11.25;;;;;11.86;99.86;99346.63;5096791;27;45363;-77
2023/03/12 07:38:54;;;;;;;;;10.50;10.50;;;;;11.85;99.18;99347.56;5096293;27;45377;-76
2023/03/12 07:41:19;;;;;;;;;11.00;10.50;;;;;11.86;98.56;99347.50;5096288;27;46431;-76
2023/03/12 07:43:45;;;;;;;;;12.00;11.50;;;;;11.87;99.08;99343.06;5096344;27;45412;-76
2023/03/12 07:46:10;;;;;;;;;13.00;11.00;;;;;11.92;99.34;99338.44;5096396;27;45543;-76
2023/03/12 07:48:36;;;;;;;;;15.50;12.00;;;;;12.00;98.91;99338.13;5096241;27;45463;-77
2023/03/12 07:51:01;;;;;;;;;16.00;14.50;;;;;12.06;98.64;99341.38;5096576;27;46417;-76
2023/03/12 07:53:27;;;;;;;;;15.50;12.00;;;;;12.16;98.78;99344.47;5095833;27;45449;-77
2023/03/12 07:55:53;;;;;;;;;18.50;15.00;;;;;12.24;98.74;99351.13;5096256;27;45387;-77
2023/03/12 07:58:19;;;;;;;;;15.75;13.75;;;;;12.31;97.79;99350.88;5095610;27;45567;-76
2023/03/12 08:00:44;;;;;;;;;13.25;13.25;;;;;12.39;97.61;99356.69;5095615;27;45698;-77
2023/03/12 08:03:11;;;;;;;;;17.75;14.50;;;;;12.45;97.44;99367.84;5094432;27;45480;-77
2023/03/12 08:05:37;;;;;;;;;16.25;13.25;;;;;12.47;95.40;99370.44;5096181;27;45488;-77
2023/03/12 08:08:02;;;;;;;;;17.50;13.50;;;;;12.47;95.29;99373.94;5095764;27;45571;-77
2023/03/12 08:10:28;;;;;;;;;13.75;12.25;;;;;12.47;94.64;99384.50;5095585;27;45454;-77
2023/03/12 08:12:53;;;;;;;;;19.50;14.50;;;;;12.44;95.30;99382.00;5095672;27;45455;-77
2023/03/12 08:15:19;;;;;;;;;28.33;24.33;;;;;12.46;95.05;99396.00;5095720;27;45375;-77
2023/03/12 08:17:45;;;;;;;;;16.75;15.00;;;;;12.47;94.91;99395.09;5095914;27;45489;-77
2023/03/12 08:20:11;;;;;;;;;21.00;18.50;;;;;12.44;95.30;99389.94;5095653;27;46355;-77
2023/03/12 08:22:38;;;;;;;;;23.00;21.75;;;;;12.43;95.15;99377.63;5095369;27;45351;-76
2023/03/12 08:25:04;;;;;;;;;17.50;16.25;;;;;12.39;95.39;99388.44;5095421;27;45537;-77
2023/03/12 08:27:30;;;;;;;;;21.25;15.75;;;;;12.37;95.31;99383.22;5095351;27;45383;-76
2023/03/12 08:29:55;;;;;;;;;21.25;20.50;;;;;12.40;95.86;99377.75;5095130;27;45339;-77
2023/03/12 08:32:21;;;;;;;;;18.75;17.00;;;;;12.46;96.13;99382.78;5095273;27;45394;-77
2023/03/12 08:34:46;;;;;;;;;17.50;14.00;;;;;12.49;96.07;99373.88;5095640;27;45471;-77
2023/03/12 08:37:12;;;;;;;;;16.25;15.00;;;;;12.51;95.32;99377.31;5093762;27;45703;-77
2023/03/12 08:39:37;;;;;;;;;15.25;14.00;;;;;12.52;95.37;99369.31;5095058;27;45875;-77
2023/03/12 08:42:04;;;;;;;;;13.00;11.50;;;;;12.54;95.42;99364.81;5094873;27;45296;-77
2023/03/12 08:44:30;;;;;;;;;13.50;11.00;;;;;12.54;95.48;99380.69;5093347;27;45355;-77
2023/03/12 08:46:55;;;;;;;;;13.50;12.00;;;;;12.54;94.30;99382.47;5093209;27;45503;-77
2023/03/12 08:49:21;;;;;;;;;15.50;15.50;;;;;12.56;94.93;99383.28;5094873;27;46195;-77
2023/03/12 08:51:47;;;;;;;;;11.00;11.00;;;;;12.54;94.57;99378.03;5095186;27;45536;-77
2023/03/12 08:54:12;;;;;;;;;15.25;14.25;;;;;12.56;95.33;99372.69;5095263;27;45398;-78
2023/03/12 08:56:41;;;;;;;;;12.50;12.50;;;;;12.56;94.88;99373.56;5094622;27;45416;-77
2023/03/12 08:59:10;;;;;;;;;14.25;13.50;;;;;12.58;94.58;99390.19;5094484;27;45553;-78
2023/03/12 09:01:36;;;;;;;;;10.75;10.00;;;;;12.58;94.14;99391.97;5094137;27;45591;-77
2023/03/12 09:04:03;;;;;;;;;17.25;13.50;;;;;12.56;93.47;99397.34;5095093;27;45443;-78
2023/03/12 09:06:28;;;;;;;;;10.50;9.50;;;;;12.54;93.07;99393.06;5094648;27;45485;-78
2023/03/12 09:08:54;;;;;;;;;7.25;7.25;;;;;12.52;93.30;99384.31;5095116;27;45506;-78
2023/03/12 09:11:22;;;;;;;;;12.50;12.25;;;;;12.50;93.36;99386.16;5095173;27;45431;-78
2023/03/12 09:13:47;;;;;;;;;13.75;12.75;;;;;12.54;93.58;99385.13;5094930;27;45389;-78
2023/03/12 09:16:13;;;;;;;;;13.50;13.50;;;;;12.61;94.03;99378.63;5093950;27;45485;-78
2023/03/12 09:18:38;;;;;;;;;12.25;10.75;;;;;12.70;94.24;99380.88;5094160;27;45390;-79
2023/03/12 09:21:05;;;;;;;;;13.00;12.00;;;;;12.82;93.63;99387.38;5094280;27;45369;-78
2023/03/12 09:23:30;;;;;;;;;13.00;12.00;;;;;12.89;92.47;99388.84;5110847;27;45513;-79
2023/03/12 09:25:56;;;;;;;;;8.75;8.50;;;;;12.95;92.63;99396.47;5094909;27;45498;-79
2023/03/12 09:28:21;;;;;;;;;11.00;11.00;;;;;13.02;92.80;99389.13;5094674;27;46499;-79
2023/03/12 09:30:47;;;;;;;;;11.25;9.75;;;;;13.07;92.62;99392.44;5094705;27;45501;-78
2023/03/12 09:33:14;;;;;;;;;10.25;9.00;;;;;13.13;93.16;99393.00;5094890;27;45466;-79
2023/03/12 09:35:40;;;;;;;;;7.50;6.25;;;;;13.18;91.98;99393.69;5093359;27;45436;-79
2023/03/12 09:38:06;;;;;;;;;9.25;9.25;;;;;13.27;92.16;99408.28;5094767;27;45479;-79
2023/03/12 09:40:36;;;;;;;;;7.50;7.50;;;;;13.40;92.32;99412.09;5094582;27;45310;-79
2023/03/12 09:43:06;;;;;;;;;11.00;9.00;;;;;13.53;91.35;99421.16;5094979;27;45435;-80
2023/03/12 09:45:38;;;;;;;;;8.00;8.00;;;;;13.69;89.59;99426.59;5094155;27;45397;-79
2023/03/12 09:48:11;;;;;;;;;8.00;7.00;;;;;13.81;89.68;99422.47;5094780;27;46782;-79
2023/03/12 09:50:42;;;;;;;;;6.00;6.00;;;;;13.96;87.97;99425.25;5094180;27;45435;-79
2023/03/12 09:53:19;;;;;;;;;6.50;5.00;;;;;14.12;87.35;99428.00;5094805;27;45313;-79
2023/03/12 09:55:49;;;;;;;;;7.25;6.00;;;;;14.27;86.80;99423.72;5081154;27;45525;-78
2023/03/12 09:58:20;;;;;;;;;6.00;5.25;;;;;14.45;86.24;99419.31;5093795;27;46849;-79
2023/03/12 10:00:45;;;;;;;;;5.80;4.80;;;;;14.57;85.86;99424.00;5082345;27;45358;-79
2023/03/12 10:03:39;;;;;;;;;6.50;4.50;;;;;14.72;84.84;99425.00;5094548;27;45835;-79
2023/03/12 10:06:10;;;;;;;;;6.00;5.00;;;;;14.81;82.39;99414.75;5094369;27;45293;-78
2023/03/12 10:08:38;;;;;;;;;0.80;0.80;;;;;14.90;79.65;99411.63;5095694;27;45397;-78
2023/03/12 10:11:03;;;;;;;;;0.80;0.80;;;;;14.97;77.09;99418.31;5095832;27;45369;-79
2023/03/12 10:13:52;;;;;;;;;0.00;0.00;;;;;15.01;66.95;99405.75;5084378;27;45299;-79
2023/03/12 10:16:20;;;;;;;;;0.80;0.00;;;;;15.01;68.72;99430.50;5097309;27;45521;-78
2023/03/12 10:18:46;;;;;;;;;0.20;0.00;;;;;15.02;68.28;99424.25;5095745;27;46936;-78
2023/03/12 10:21:45;;;;;;;;;0.00;0.00;;;;;15.07;68.43;99441.75;5097180;27;45407;-78
2023/03/12 10:24:53;;;;;;;;;0.20;0.00;;;;;15.11;63.74;99425.53;5096689;27;45394;-77
2023/03/12 10:27:23;;;;;;;;;0.00;0.00;;;;;15.17;62.98;99414.59;5095770;27;46179;-78
2023/03/12 10:29:51;;;;;;;;;0.00;0.00;;;;;15.23;67.71;99416.94;5096797;27;45442;-78
2023/03/12 10:32:24;;;;;;;;;0.00;0.00;;;;;15.25;62.62;99420.34;5094854;27;45430;-77
2023/03/12 10:34:54;;;;;;;;;0.00;0.00;;;;;15.25;60.96;99401.75;5095370;27;45383;-77
2023/03/12 10:37:28;;;;;;;;;0.00;0.00;;;;;15.23;59.56;99408.09;5094486;27;45699;-76
2023/03/12 10:39:54;;;;;;;;;0.00;0.00;;;;;15.18;62.76;99399.53;5096140;27;46410;-77
2023/03/12 10:42:26;;;;;;;;;0.00;0.00;;;;;15.18;60.76;99399.53;5096231;27;45376;-77
2023/03/12 10:44:57;;;;;;;;;0.00;0.00;;;;;15.23;62.79;99393.03;5094564;27;45449;-77
2023/03/12 10:47:41;;;;;;;;;0.00;0.00;;;;;15.28;63.73;99400.72;5094784;27;45582;-76
2023/03/12 10:50:19;;;;;;;;;0.00;0.00;;;;;15.25;60.74;99385.81;5095872;27;45558;-77
2023/03/12 10:52:47;;;;;;;;;0.00;0.00;;;;;15.24;61.29;99396.53;5094667;27;45445;-78
2023/03/12 10:55:19;;;;;;;;;0.00;0.00;;;;;15.21;60.77;99391.38;5096530;27;45431;-78
2023/03/12 10:57:45;;;;;;;;;0.00;0.00;;;;;15.21;60.52;99378.09;5094699;27;45407;-76
2023/03/12 11:00:21;;;;;;;;;0.00;0.00;;;;;15.23;59.47;99393.03;5096167;27;45575;-77
2023/03/12 11:02:57;;;;;;;;;0.00;0.00;;;;;15.27;56.90;99383.06;5095713;27;45431;-78
2023/03/12 11:05:30;;;;;;;;;0.00;0.00;;;;;15.32;59.04;99381.03;5096470;27;45331;-77
2023/03/12 11:07:56;;;;;;;;;0.00;0.00;;;;;15.38;59.18;99375.38;5096566;27;45488;-77
2023/03/12 11:10:37;;;;;;;;;0.00;0.00;;;;;15.45;57.27;99392.69;5095942;27;45451;-77
2023/03/12 11:13:18;;;;;;;;;0.00;0.00;;;;;15.51;55.88;99388.84;5096360;27;45478;-78
2023/03/12 11:15:44;;;;;;;;;0.00;0.00;;;;;15.57;57.41;99377.91;5096058;27;45429;-77
2023/03/12 11:18:25;;;;;;;;;0.00;0.00;;;;;15.66;54.50;99385.34;5095762;27;45442;-77
2023/03/12 11:20:55;;;;;;;;;0.00;0.00;;;;;15.73;57.25;99388.53;5095945;27;45417;-78
2023/03/12 11:23:29;;;;;;;;;0.00;0.00;;;;;15.83;56.29;99387.91;5096688;27;45406;-78